sensor_id;sensor_type;location;lat;lon;timestamp;pressure;altitude;pressure_sealevel;temperature;humidity
69667;BME280;66534;52.370;4.832;2023-04-07T00:00:19;101462.28;;;8.13;100.00
69667;BME280;66534;52.370;4.832;2023-04-07T00:00:49;101461.44;;;8.12;100.00
69667;BME280;66534;52.370;4.832;2023-04-07T00:01:20;101459.81;;;8.07;100.00
69667;BME280;66534;52.370;4.832;2023-04-07T00:01:51;101459.06;;;8.02;100.00
69667;BME280;66534;52.370;4.832;2023-04-07T00:02:21;101459.84;;;8.05;100.00
69667;BME280;66534;52.370;4.832;2023-04-07T00:02:52;101470.31;;;8.05;100.00
69667;BME280;66534;52.370;4.832;2023-04-07T00:03:23;101467.69;;;8.05;100.00
69667;BME280;66534;52.370;4.832;2023-04-07T00:03:53;101470.44;;;8.01;100.00
69667;BME280;66534;52.370;4.832;2023-04-07T00:04:24;101470.91;;;8.16;100.00
69667;BME280;66534;52.370;4.832;2023-04-07T00:04:55;101465.88;;;8.09;100.00
69667;BME280;66534;52.370;4.832;2023-04-07T00:05:27;101471.22;;;8.04;100.00
69667;BME280;66534;52.370;4.832;2023-04-07T00:05:57;101468.66;;;8.01;100.00
69667;BME280;66534;52.370;4.832;2023-04-07T00:06:28;101464.13;;;8.09;100.00
69667;BME280;66534;52.370;4.832;2023-04-07T00:06:58;101466.91;;;8.02;100.00
69667;BME280;66534;52.370;4.832;2023-04-07T00:07:29;101470.50;;;7.97;100.00
69667;BME280;66534;52.370;4.832;2023-04-07T00:08:00;101475.03;;;7.91;100.00
69667;BME280;66534;52.370;4.832;2023-04-07T00:08:30;101474.06;;;7.95;100.00
69667;BME280;66534;52.370;4.832;2023-04-07T00:09:01;101465.03;;;8.07;100.00
69667;BME280;66534;52.370;4.832;2023-04-07T00:09:31;101466.63;;;8.14;100.00
69667;BME280;66534;52.370;4.832;2023-04-07T00:10:01;101473.78;;;8.06;100.00
69667;BME280;66534;52.370;4.832;2023-04-07T00:10:32;101470.38;;;8.02;100.00
69667;BME280;66534;52.370;4.832;2023-04-07T00:11:03;101471.22;;;8.04;100.00
69667;BME280;66534;52.370;4.832;2023-04-07T00:11:33;101467.63;;;8.08;100.00
69667;BME280;66534;52.370;4.832;2023-04-07T00:12:04;101464.78;;;8.17;100.00
69667;BME280;66534;52.370;4.832;2023-04-07T00:12:34;101469.78;;;8.28;100.00
69667;BME280;66534;52.370;4.832;2023-04-07T00:13:05;101476.81;;;8.24;100.00
69667;BME280;66534;52.370;4.832;2023-04-07T00:13:35;101472.56;;;8.20;100.00
69667;BME280;66534;52.370;4.832;2023-04-07T00:14:05;101472.59;;;8.19;100.00
69667;BME280;66534;52.370;4.832;2023-04-07T00:14:36;101478.47;;;8.29;100.00
69667;BME280;66534;52.370;4.832;2023-04-07T00:15:06;101473.53;;;8.16;100.00
69667;BME280;66534;52.370;4.832;2023-04-07T00:15:37;101482.59;;;8.39;100.00
69667;BME280;66534;52.370;4.832;2023-04-07T00:16:08;101479.06;;;8.40;100.00
69667;BME280;66534;52.370;4.832;2023-04-07T00:16:38;101480.81;;;8.39;100.00
69667;BME280;66534;52.370;4.832;2023-04-07T00:17:08;101475.75;;;8.32;100.00
69667;BME280;66534;52.370;4.832;2023-04-07T00:17:39;101470.75;;;8.22;100.00
69667;BME280;66534;52.370;4.832;2023-04-07T00:18:09;101476.81;;;8.24;100.00
69667;BME280;66534;52.370;4.832;2023-04-07T00:18:40;101475.97;;;8.24;100.00
69667;BME280;66534;52.370;4.832;2023-04-07T00:19:10;101475.97;;;8.22;100.00
69667;BME280;66534;52.370;4.832;2023-04-07T00:19:40;101486.19;;;8.33;100.00
69667;BME280;66534;52.370;4.832;2023-04-07T00:20:11;101476.44;;;8.40;100.00
69667;BME280;66534;52.370;4.832;2023-04-07T00:20:41;101478.41;;;8.30;100.00
69667;BME280;66534;52.370;4.832;2023-04-07T00:21:12;101481.75;;;8.35;100.00
69667;BME280;66534;52.370;4.832;2023-04-07T00:21:42;101482.47;;;8.43;100.00
69667;BME280;66534;52.370;4.832;2023-04-07T00:22:13;101472.84;;;8.45;100.00
69667;BME280;66534;52.370;4.832;2023-04-07T00:22:43;101486.78;;;8.46;100.00
69667;BME280;66534;52.370;4.832;2023-04-07T00:23:13;101478.97;;;8.44;100.00
69667;BME280;66534;52.370;4.832;2023-04-07T00:23:44;101477.88;;;8.53;100.00
69667;BME280;66534;52.370;4.832;2023-04-07T00:24:16;101481.38;;;8.52;100.00
69667;BME280;66534;52.370;4.832;2023-04-07T00:24:46;101483.97;;;8.54;100.00
69667;BME280;66534;52.370;4.832;2023-04-07T00:25:16;101482.75;;;8.31;100.00
69667;BME280;66534;52.370;4.832;2023-04-07T00:25:47;101476.78;;;8.26;100.00
69667;BME280;66534;52.370;4.832;2023-04-07T00:26:17;101479.44;;;8.23;100.00
69667;BME280;66534;52.370;4.832;2023-04-07T00:26:48;101485.34;;;8.31;100.00
69667;BME280;66534;52.370;4.832;2023-04-07T00:27:18;101485.28;;;8.34;100.00
69667;BME280;66534;52.370;4.832;2023-04-07T00:27:49;101481.22;;;8.22;100.00
69667;BME280;66534;52.370;4.832;2023-04-07T00:28:19;101488.38;;;8.14;100.00
69667;BME280;66534;52.370;4.832;2023-04-07T00:28:49;101478.78;;;8.15;100.00
69667;BME280;66534;52.370;4.832;2023-04-07T00:29:20;101480.22;;;8.28;100.00
69667;BME280;66534;52.370;4.832;2023-04-07T00:29:50;101486.06;;;8.39;100.00
69667;BME280;66534;52.370;4.832;2023-04-07T00:30:23;101484.22;;;8.44;100.00
69667;BME280;66534;52.370;4.832;2023-04-07T00:30:54;101499.78;;;8.49;100.00
69667;BME280;66534;52.370;4.832;2023-04-07T00:31:25;101487.31;;;8.59;100.00
69667;BME280;66534;52.370;4.832;2023-04-07T00:31:55;101413.25;;;8.22;100.00
69667;BME280;66534;52.370;4.832;2023-04-07T00:32:25;101490.16;;;8.50;100.00
69667;BME280;66534;52.370;4.832;2023-04-07T00:32:56;101493.41;;;8.59;100.00
69667;BME280;66534;52.370;4.832;2023-04-07T00:33:26;101491.03;;;8.50;100.00
69667;BME280;66534;52.370;4.832;2023-04-07T00:33:57;101487.75;;;8.42;100.00
69667;BME280;66534;52.370;4.832;2023-04-07T00:34:27;101485.97;;;8.42;100.00
69667;BME280;66534;52.370;4.832;2023-04-07T00:34:57;101491.09;;;8.47;100.00
69667;BME280;66534;52.370;4.832;2023-04-07T00:35:28;101489.31;;;8.49;100.00
69667;BME280;66534;52.370;4.832;2023-04-07T00:35:58;101489.38;;;8.46;100.00
69667;BME280;66534;52.370;4.832;2023-04-07T00:36:28;101494.56;;;8.47;100.00
69667;BME280;66534;52.370;4.832;2023-04-07T00:37:00;101485.69;;;8.55;100.00
69667;BME280;66534;52.370;4.832;2023-04-07T00:37:30;101492.66;;;8.54;100.00
69667;BME280;66534;52.370;4.832;2023-04-07T00:38:01;101493.41;;;8.59;100.00
69667;BME280;66534;52.370;4.832;2023-04-07T00:38:32;101486.47;;;8.58;100.00
69667;BME280;66534;52.370;4.832;2023-04-07T00:39:02;101492.41;;;8.63;100.00
69667;BME280;66534;52.370;4.832;2023-04-07T00:39:33;101499.47;;;8.61;100.00
69667;BME280;66534;52.370;4.832;2023-04-07T00:40:04;101495.41;;;8.50;100.00
69667;BME280;66534;52.370;4.832;2023-04-07T00:40:35;101492.13;;;8.40;100.00
69667;BME280;66534;52.370;4.832;2023-04-07T00:41:05;101494.84;;;8.35;100.00
69667;BME280;66534;52.370;4.832;2023-04-07T00:41:36;101492.00;;;8.46;100.00
69667;BME280;66534;52.370;4.832;2023-04-07T00:42:06;101488.81;;;8.33;100.00
69667;BME280;66534;52.370;4.832;2023-04-07T00:42:37;101487.97;;;8.31;100.00
69667;BME280;66534;52.370;4.832;2023-04-07T00:43:07;101493.13;;;8.34;100.00
69667;BME280;66534;52.370;4.832;2023-04-07T00:43:37;101494.94;;;8.31;100.00
69667;BME280;66534;52.370;4.832;2023-04-07T00:44:08;101484.63;;;8.26;100.00
69667;BME280;66534;52.370;4.832;2023-04-07T00:44:38;101494.28;;;8.22;100.00
69667;BME280;66534;52.370;4.832;2023-04-07T00:45:09;101488.91;;;8.29;100.00
69667;BME280;66534;52.370;4.832;2023-04-07T00:45:40;101486.03;;;8.41;100.00
69667;BME280;66534;52.370;4.832;2023-04-07T00:46:11;101496.31;;;8.47;100.00
69667;BME280;66534;52.370;4.832;2023-04-07T00:46:41;101487.56;;;8.48;100.00
69667;BME280;66534;52.370;4.832;2023-04-07T00:47:12;101488.72;;;8.38;100.00
69667;BME280;66534;52.370;4.832;2023-04-07T00:47:43;101488.25;;;8.19;100.00
69667;BME280;66534;52.370;4.832;2023-04-07T00:48:13;101487.50;;;8.15;100.00
69667;BME280;66534;52.370;4.832;2023-04-07T00:48:44;101477.75;;;8.22;100.00
69667;BME280;66534;52.370;4.832;2023-04-07T00:49:15;101491.34;;;8.36;100.00
69667;BME280;66534;52.370;4.832;2023-04-07T00:49:48;101488.81;;;8.33;100.00
69667;BME280;66534;52.370;4.832;2023-04-07T00:50:19;101489.56;;;8.38;100.00
69667;BME280;66534;52.370;4.832;2023-04-07T00:50:49;101481.94;;;8.28;100.00
69667;BME280;66534;52.370;4.832;2023-04-07T00:51:20;101489.84;;;8.26;100.00
69667;BME280;66534;52.370;4.832;2023-04-07T00:51:51;101485.75;;;8.16;100.00
69667;BME280;66534;52.370;4.832;2023-04-07T00:52:22;101484.78;;;8.18;100.00
69667;BME280;66534;52.370;4.832;2023-04-07T00:52:57;101486.41;;;8.24;100.00
69667;BME280;66534;52.370;4.832;2023-04-07T00:53:28;101486.38;;;8.26;100.00
69667;BME280;66534;52.370;4.832;2023-04-07T00:53:59;101490.78;;;8.23;100.00
69667;BME280;66534;52.370;4.832;2023-04-07T00:54:30;101492.47;;;8.26;100.00
69667;BME280;66534;52.370;4.832;2023-04-07T00:55:01;101488.91;;;8.29;100.00
69667;BME280;66534;52.370;4.832;2023-04-07T00:55:31;101491.56;;;8.27;100.00
69667;BME280;66534;52.370;4.832;2023-04-07T00:56:01;101485.34;;;8.31;100.00
69667;BME280;66534;52.370;4.832;2023-04-07T00:56:32;101493.28;;;8.28;100.00
69667;BME280;66534;52.370;4.832;2023-04-07T00:57:02;101492.63;;;8.20;100.00
69667;BME280;66534;52.370;4.832;2023-04-07T00:57:33;101489.16;;;8.18;100.00
69667;BME280;66534;52.370;4.832;2023-04-07T00:58:03;101491.91;;;8.13;100.00
69667;BME280;66534;52.370;4.832;2023-04-07T00:58:34;101488.25;;;8.19;100.00
69667;BME280;66534;52.370;4.832;2023-04-07T00:59:05;101489.88;;;8.24;100.00
69667;BME280;66534;52.370;4.832;2023-04-07T00:59:35;101499.44;;;8.26;100.00
69667;BME280;66534;52.370;4.832;2023-04-07T01:00:06;101494.94;;;8.31;100.00
69667;BME280;66534;52.370;4.832;2023-04-07T01:00:42;101493.28;;;8.28;100.00
69667;BME280;66534;52.370;4.832;2023-04-07T01:01:29;101490.00;;;8.20;100.00
69667;BME280;66534;52.370;4.832;2023-04-07T01:02:51;101489.59;;;8.35;100.00
69667;BME280;66534;52.370;4.832;2023-04-07T01:03:45;101495.25;;;8.18;100.00
69667;BME280;66534;52.370;4.832;2023-04-07T01:04:26;101497.91;;;8.17;100.00
69667;BME280;66534;52.370;4.832;2023-04-07T01:05:25;101492.56;;;8.21;100.00
69667;BME280;66534;52.370;4.832;2023-04-07T01:06:00;101488.88;;;8.30;100.00
69667;BME280;66534;52.370;4.832;2023-04-07T01:06:33;101494.81;;;8.38;100.00
69667;BME280;66534;52.370;4.832;2023-04-07T01:07:17;101487.97;;;8.31;100.00
69667;BME280;66534;52.370;4.832;2023-04-07T01:08:09;101493.47;;;8.20;100.00
69667;BME280;66534;52.370;4.832;2023-04-07T01:09:17;101493.97;;;8.35;100.00
69667;BME280;66534;52.370;4.832;2023-04-07T01:09:54;101494.03;;;8.33;100.00
69667;BME280;66534;52.370;4.832;2023-04-07T01:10:38;101494.03;;;8.32;100.00
69667;BME280;66534;52.370;4.832;2023-04-07T01:11:19;101495.28;;;8.17;100.00
69667;BME280;66534;52.370;4.832;2023-04-07T01:11:58;101496.16;;;8.17;100.00
69667;BME280;66534;52.370;4.832;2023-04-07T01:13:01;101492.25;;;8.37;100.00
69667;BME280;66534;52.370;4.832;2023-04-07T01:14:00;101495.97;;;8.25;100.00
69667;BME280;66534;52.370;4.832;2023-04-07T01:14:32;101496.50;;;8.39;100.00
69667;BME280;66534;52.370;4.832;2023-04-07T01:15:10;101503.59;;;8.34;100.00
69667;BME280;66534;52.370;4.832;2023-04-07T01:15:42;101502.53;;;8.43;100.00
69667;BME280;66534;52.370;4.832;2023-04-07T01:16:22;101493.09;;;8.37;100.00
69667;BME280;66534;52.370;4.832;2023-04-07T01:16:56;101492.91;;;8.45;100.00
69667;BME280;66534;52.370;4.832;2023-04-07T01:17:30;101507.31;;;8.60;100.00
69667;BME280;66534;52.370;4.832;2023-04-07T01:18:09;101500.13;;;8.69;100.00
69667;BME280;66534;52.370;4.832;2023-04-07T01:18:44;101497.28;;;8.44;100.00
69667;BME280;66534;52.370;4.832;2023-04-07T01:20:30;101499.72;;;8.51;100.00
69667;BME280;66534;52.370;4.832;2023-04-07T01:21:03;101505.00;;;8.49;100.00
69667;BME280;66534;52.370;4.832;2023-04-07T01:21:36;101499.53;;;8.58;100.00
69667;BME280;66534;52.370;4.832;2023-04-07T01:22:13;101498.31;;;8.36;100.00
69667;BME280;66534;52.370;4.832;2023-04-07T01:22:49;101498.41;;;8.31;100.00
69667;BME280;66534;52.370;4.832;2023-04-07T01:23:31;101496.50;;;8.41;100.00
69667;BME280;66534;52.370;4.832;2023-04-07T01:24:26;101501.78;;;8.38;100.00
69667;BME280;66534;52.370;4.832;2023-04-07T01:25:26;101503.38;;;8.43;100.00
69667;BME280;66534;52.370;4.832;2023-04-07T01:26:27;101499.78;;;8.47;100.00
69667;BME280;66534;52.370;4.832;2023-04-07T01:27:24;101498.31;;;8.36;100.00
69667;BME280;66534;52.370;4.832;2023-04-07T01:29:41;101501.06;;;8.67;100.00
69667;BME280;66534;52.370;4.832;2023-04-07T01:30:17;101504.72;;;8.60;100.00
69667;BME280;66534;52.370;4.832;2023-04-07T01:30:49;101499.78;;;8.49;100.00
69667;BME280;66534;52.370;4.832;2023-04-07T01:31:25;101493.03;;;8.40;100.00
69667;BME280;66534;52.370;4.832;2023-04-07T01:31:58;101502.53;;;8.43;100.00
69667;BME280;66534;52.370;4.832;2023-04-07T01:32:30;101500.22;;;8.65;100.00
69667;BME280;66534;52.370;4.832;2023-04-07T01:33:03;101496.78;;;8.63;100.00
69667;BME280;66534;52.370;4.832;2023-04-07T01:33:35;101499.41;;;8.63;100.00
69667;BME280;66534;52.370;4.832;2023-04-07T01:34:10;101501.38;;;8.55;100.00
69667;BME280;66534;52.370;4.832;2023-04-07T01:34:43;101498.94;;;8.47;100.00
69667;BME280;66534;52.370;4.832;2023-04-07T01:35:17;101500.94;;;8.37;100.00
69667;BME280;66534;52.370;4.832;2023-04-07T01:35:48;101501.72;;;8.41;100.00
69667;BME280;66534;52.370;4.832;2023-04-07T01:36:20;101497.28;;;8.44;100.00
69667;BME280;66534;52.370;4.832;2023-04-07T01:36:53;101497.47;;;8.37;100.00
69667;BME280;66534;52.370;4.832;2023-04-07T01:37:25;101493.25;;;8.30;100.00
69667;BME280;66534;52.370;4.832;2023-04-07T01:37:56;101493.78;;;8.44;100.00
69667;BME280;66534;52.370;4.832;2023-04-07T01:38:29;101503.25;;;8.50;100.00
69667;BME280;66534;52.370;4.832;2023-04-07T01:39:00;101502.09;;;8.60;100.00
69667;BME280;66534;52.370;4.832;2023-04-07T01:39:31;101497.91;;;8.54;100.00
69667;BME280;66534;52.370;4.832;2023-04-07T01:40:03;101502.41;;;8.47;100.00
69667;BME280;66534;52.370;4.832;2023-04-07T01:40:36;101496.38;;;8.45;100.00
69667;BME280;66534;52.370;4.832;2023-04-07T01:41:08;101492.97;;;8.42;100.00
69667;BME280;66534;52.370;4.832;2023-04-07T01:41:40;101503.69;;;8.30;100.00
69667;BME280;66534;52.370;4.832;2023-04-07T01:42:11;101499.50;;;8.24;100.00
69667;BME280;66534;52.370;4.832;2023-04-07T01:42:42;101502.91;;;8.26;100.00
69667;BME280;66534;52.370;4.832;2023-04-07T01:43:15;101498.69;;;8.20;100.00
69667;BME280;66534;52.370;4.832;2023-04-07T01:43:47;101502.22;;;8.18;100.00
69667;BME280;66534;52.370;4.832;2023-04-07T01:44:18;101500.41;;;8.21;100.00
69667;BME280;66534;52.370;4.832;2023-04-07T01:44:50;101496.72;;;8.30;100.00
69667;BME280;66534;52.370;4.832;2023-04-07T01:45:22;101494.84;;;8.35;100.00
69667;BME280;66534;52.370;4.832;2023-04-07T01:45:53;101502.56;;;8.41;100.00
69667;BME280;66534;52.370;4.832;2023-04-07T01:46:26;101504.59;;;8.29;100.00
69667;BME280;66534;52.370;4.832;2023-04-07T01:46:57;101503.44;;;8.42;100.00
69667;BME280;66534;52.370;4.832;2023-04-07T01:47:29;101502.53;;;8.43;100.00
69667;BME280;66534;52.370;4.832;2023-04-07T01:48:03;101499.13;;;8.39;100.00
69667;BME280;66534;52.370;4.832;2023-04-07T01:48:35;101499.22;;;8.35;100.00
69667;BME280;66534;52.370;4.832;2023-04-07T01:49:06;101499.38;;;8.29;100.00
69667;BME280;66534;52.370;4.832;2023-04-07T01:49:37;101508.03;;;8.31;100.00
69667;BME280;66534;52.370;4.832;2023-04-07T01:50:11;101502.84;;;8.28;100.00
69667;BME280;66534;52.370;4.832;2023-04-07T01:50:43;101499.38;;;8.29;100.00
69667;BME280;66534;52.370;4.832;2023-04-07T01:51:14;101502.78;;;8.32;100.00
69667;BME280;66534;52.370;4.832;2023-04-07T01:51:48;101499.28;;;8.32;100.00
69667;BME280;66534;52.370;4.832;2023-04-07T01:52:19;101505.38;;;8.32;100.00
69667;BME280;66534;52.370;4.832;2023-04-07T01:52:50;101506.84;;;8.45;100.00
69667;BME280;66534;52.370;4.832;2023-04-07T01:53:22;101507.75;;;8.43;100.00
69667;BME280;66534;52.370;4.832;2023-04-07T01:53:52;101500.91;;;8.36;100.00
69667;BME280;66534;52.370;4.832;2023-04-07T01:54:23;101500.06;;;8.35;100.00
69667;BME280;66534;52.370;4.832;2023-04-07T01:54:55;101500.06;;;8.35;100.00
69667;BME280;66534;52.370;4.832;2023-04-07T01:55:26;101512.34;;;8.32;100.00
69667;BME280;66534;52.370;4.832;2023-04-07T01:55:57;101507.16;;;8.30;100.00
69667;BME280;66534;52.370;4.832;2023-04-07T01:56:28;101506.38;;;8.27;100.00
69667;BME280;66534;52.370;4.832;2023-04-07T01:56:58;101505.34;;;8.34;100.00
69667;BME280;66534;52.370;4.832;2023-04-07T01:57:28;101508.06;;;8.29;100.00
69667;BME280;66534;52.370;4.832;2023-04-07T01:58:03;101510.97;;;8.17;100.00
69667;BME280;66534;52.370;4.832;2023-04-07T01:58:35;101504.91;;;8.15;100.00
69667;BME280;66534;52.370;4.832;2023-04-07T01:59:05;101514.28;;;8.25;100.00
69667;BME280;66534;52.370;4.832;2023-04-07T01:59:35;101511.41;;;8.34;100.00
69667;BME280;66534;52.370;4.832;2023-04-07T02:00:06;101510.50;;;8.38;100.00
69667;BME280;66534;52.370;4.832;2023-04-07T02:00:37;101506.53;;;8.56;100.00
69667;BME280;66534;52.370;4.832;2023-04-07T02:01:07;101504.84;;;8.55;100.00
69667;BME280;66534;52.370;4.832;2023-04-07T02:01:38;101507.63;;;8.47;100.00
69667;BME280;66534;52.370;4.832;2023-04-07T02:02:09;101505.84;;;8.50;100.00
69667;BME280;66534;52.370;4.832;2023-04-07T02:02:40;101508.34;;;8.54;100.00
69667;BME280;66534;52.370;4.832;2023-04-07T02:03:28;101505.13;;;8.44;100.00
69667;BME280;66534;52.370;4.832;2023-04-07T02:04:57;101505.75;;;8.54;100.00
69667;BME280;66534;52.370;4.832;2023-04-07T02:05:34;101495.47;;;8.46;100.00
69667;BME280;66534;52.370;4.832;2023-04-07T02:06:07;101500.94;;;8.37;100.00
69667;BME280;66534;52.370;4.832;2023-04-07T02:06:43;101505.69;;;8.20;100.00
69667;BME280;66534;52.370;4.832;2023-04-07T02:07:30;101511.78;;;8.19;100.00
69667;BME280;66534;52.370;4.832;2023-04-07T02:08:08;101500.34;;;8.24;100.00
69667;BME280;66534;52.370;4.832;2023-04-07T02:08:41;101502.00;;;8.27;100.00
69667;BME280;66534;52.370;4.832;2023-04-07T02:09:17;101503.38;;;8.43;100.00
69667;BME280;66534;52.370;4.832;2023-04-07T02:09:50;101506.97;;;8.39;100.00
69667;BME280;66534;52.370;4.832;2023-04-07T02:10:29;101509.00;;;8.27;100.00
69667;BME280;66534;52.370;4.832;2023-04-07T02:11:04;101503.81;;;8.25;100.00
69667;BME280;66534;52.370;4.832;2023-04-07T02:11:36;101503.59;;;8.34;100.00
69667;BME280;66534;52.370;4.832;2023-04-07T02:12:10;101502.00;;;8.29;100.00
69667;BME280;66534;52.370;4.832;2023-04-07T02:12:43;101499.97;;;8.40;100.00
69667;BME280;66534;52.370;4.832;2023-04-07T02:13:17;101504.16;;;8.47;100.00
69667;BME280;66534;52.370;4.832;2023-04-07T02:13:49;101506.94;;;8.41;100.00
69667;BME280;66534;52.370;4.832;2023-04-07T02:14:23;101511.41;;;8.34;100.00
69667;BME280;66534;52.370;4.832;2023-04-07T02:14:54;101502.56;;;8.41;100.00
69667;BME280;66534;52.370;4.832;2023-04-07T02:15:25;101508.47;;;8.50;100.00
69667;BME280;66534;52.370;4.832;2023-04-07T02:15:57;101505.81;;;8.51;100.00
69667;BME280;66534;52.370;4.832;2023-04-07T02:16:30;101503.50;;;8.39;100.00
69667;BME280;66534;52.370;4.832;2023-04-07T02:17:02;101513.19;;;8.34;100.00
69667;BME280;66534;52.370;4.832;2023-04-07T02:17:33;101511.31;;;8.40;100.00
69667;BME280;66534;52.370;4.832;2023-04-07T02:18:08;101504.91;;;8.52;100.00
69667;BME280;66534;52.370;4.832;2023-04-07T02:18:39;101508.50;;;8.48;100.00
69667;BME280;66534;52.370;4.832;2023-04-07T02:19:11;101513.28;;;8.65;100.00
69667;BME280;66534;52.370;4.832;2023-04-07T02:19:41;101509.16;;;8.56;100.00
69667;BME280;66534;52.370;4.832;2023-04-07T02:20:14;101503.31;;;8.46;100.00
69667;BME280;66534;52.370;4.832;2023-04-07T02:20:46;101503.63;;;8.33;100.00
69667;BME280;66534;52.370;4.832;2023-04-07T02:21:19;101512.19;;;8.39;100.00
69667;BME280;66534;52.370;4.832;2023-04-07T02:21:50;101506.09;;;8.40;100.00
69667;BME280;66534;52.370;4.832;2023-04-07T02:22:21;101505.28;;;8.35;100.00
69667;BME280;66534;52.370;4.832;2023-04-07T02:22:51;101507.91;;;8.35;100.00
69667;BME280;66534;52.370;4.832;2023-04-07T02:23:23;101503.56;;;8.37;100.00
69667;BME280;66534;52.370;4.832;2023-04-07T02:23:54;101512.00;;;8.47;100.00
69667;BME280;66534;52.370;4.832;2023-04-07T02:24:24;101510.19;;;8.51;100.00
69667;BME280;66534;52.370;4.832;2023-04-07T02:24:55;101507.81;;;8.40;100.00
69667;BME280;66534;52.370;4.832;2023-04-07T02:25:26;101453.63;;;8.11;100.00
69667;BME280;66534;52.370;4.832;2023-04-07T02:25:58;101508.59;;;8.43;100.00
69667;BME280;66534;52.370;4.832;2023-04-07T02:26:32;101506.16;;;8.37;100.00
69667;BME280;66534;52.370;4.832;2023-04-07T02:27:03;101512.25;;;8.36;100.00
69667;BME280;66534;52.370;4.832;2023-04-07T02:27:33;101507.50;;;8.52;100.00
69667;BME280;66534;52.370;4.832;2023-04-07T02:28:04;101510.69;;;8.65;100.00
69667;BME280;66534;52.370;4.832;2023-04-07T02:28:35;101516.34;;;8.48;100.00
69667;BME280;66534;52.370;4.832;2023-04-07T02:29:06;101506.16;;;8.37;100.00
69667;BME280;66534;52.370;4.832;2023-04-07T02:29:36;101510.63;;;8.31;100.00
69667;BME280;66534;52.370;4.832;2023-04-07T02:30:07;101512.25;;;8.38;100.00
69667;BME280;66534;52.370;4.832;2023-04-07T02:30:38;101512.97;;;8.43;100.00
69667;BME280;66534;52.370;4.832;2023-04-07T02:31:08;101511.22;;;8.45;100.00
69667;BME280;66534;52.370;4.832;2023-04-07T02:31:40;101514.38;;;8.56;100.00
69667;BME280;66534;52.370;4.832;2023-04-07T02:32:10;101510.81;;;8.60;100.00
69667;BME280;66534;52.370;4.832;2023-04-07T02:32:40;101512.72;;;8.54;100.00
69667;BME280;66534;52.370;4.832;2023-04-07T02:33:11;101517.97;;;8.52;100.00
69667;BME280;66534;52.370;4.832;2023-04-07T02:33:41;101507.63;;;8.49;100.00
69667;BME280;66534;52.370;4.832;2023-04-07T02:34:12;101513.66;;;8.51;100.00
69667;BME280;66534;52.370;4.832;2023-04-07T02:34:42;101504.69;;;8.61;100.00
69667;BME280;66534;52.370;4.832;2023-04-07T02:35:13;101510.53;;;8.71;100.00
69667;BME280;66534;52.370;4.832;2023-04-07T02:35:45;101513.50;;;8.57;100.00
69667;BME280;66534;52.370;4.832;2023-04-07T02:36:15;101512.31;;;8.69;100.00
69667;BME280;66534;52.370;4.832;2023-04-07T02:36:45;101506.63;;;8.86;100.00
69667;BME280;66534;52.370;4.832;2023-04-07T02:37:16;101515.69;;;8.74;100.00
69667;BME280;66534;52.370;4.832;2023-04-07T02:37:46;101504.81;;;8.89;100.00
69667;BME280;66534;52.370;4.832;2023-04-07T02:38:17;101510.03;;;8.89;100.00
69667;BME280;66534;52.370;4.832;2023-04-07T02:38:47;101510.81;;;8.93;100.00
69667;BME280;66534;52.370;4.832;2023-04-07T02:39:18;101507.47;;;8.88;100.00
69667;BME280;66534;52.370;4.832;2023-04-07T02:39:48;101513.50;;;8.90;100.00
69667;BME280;66534;52.370;4.832;2023-04-07T02:40:19;101506.63;;;8.87;100.00
69667;BME280;66534;52.370;4.832;2023-04-07T02:40:49;101514.13;;;9.00;100.00
69667;BME280;66534;52.370;4.832;2023-04-07T02:41:19;101514.63;;;8.81;100.00
69667;BME280;66534;52.370;4.832;2023-04-07T02:41:50;101515.88;;;8.66;100.00
69667;BME280;66534;52.370;4.832;2023-04-07T02:42:20;101508.69;;;8.75;100.00
69667;BME280;66534;52.370;4.832;2023-04-07T02:42:51;101514.63;;;8.81;100.00
69667;BME280;66534;52.370;4.832;2023-04-07T02:43:22;101511.56;;;8.65;100.00
69667;BME280;66534;52.370;4.832;2023-04-07T02:43:52;101512.75;;;8.52;100.00
69667;BME280;66534;52.370;4.832;2023-04-07T02:44:23;101503.19;;;8.51;100.00
69667;BME280;66534;52.370;4.832;2023-04-07T02:44:53;101508.66;;;8.42;100.00
69667;BME280;66534;52.370;4.832;2023-04-07T02:45:23;101510.38;;;8.43;100.00
69667;BME280;66534;52.370;4.832;2023-04-07T02:45:54;101515.38;;;8.52;100.00
69667;BME280;66534;52.370;4.832;2023-04-07T02:46:24;101513.97;;;8.39;100.00
69667;BME280;66534;52.370;4.832;2023-04-07T02:46:54;101511.22;;;8.43;100.00
69667;BME280;66534;52.370;4.832;2023-04-07T02:47:25;101510.34;;;8.44;100.00
69667;BME280;66534;52.370;4.832;2023-04-07T02:47:55;101517.44;;;8.39;100.00
69667;BME280;66534;52.370;4.832;2023-04-07T02:48:26;101509.50;;;8.42;100.00
69667;BME280;66534;52.370;4.832;2023-04-07T02:48:56;101509.44;;;8.45;100.00
69667;BME280;66534;52.370;4.832;2023-04-07T02:49:26;101508.72;;;8.39;100.00
69667;BME280;66534;52.370;4.832;2023-04-07T02:49:57;101510.81;;;8.24;100.00
69667;BME280;66534;52.370;4.832;2023-04-07T02:50:27;101509.03;;;8.25;100.00
69667;BME280;66534;52.370;4.832;2023-04-07T02:50:58;101512.41;;;8.30;100.00
69667;BME280;66534;52.370;4.832;2023-04-07T02:51:28;101510.53;;;8.35;100.00
69667;BME280;66534;52.370;4.832;2023-04-07T02:51:59;101510.69;;;8.29;100.00
69667;BME280;66534;52.370;4.832;2023-04-07T02:52:29;101515.00;;;8.30;100.00
69667;BME280;66534;52.370;4.832;2023-04-07T02:53:00;101514.94;;;8.33;100.00
69667;BME280;66534;52.370;4.832;2023-04-07T02:53:30;101521.72;;;8.42;100.00
69667;BME280;66534;52.370;4.832;2023-04-07T02:54:00;101511.28;;;8.42;100.00
69667;BME280;66534;52.370;4.832;2023-04-07T02:54:31;101512.59;;;8.58;100.00
69667;BME280;66534;52.370;4.832;2023-04-07T02:55:01;101514.44;;;8.55;100.00
69667;BME280;66534;52.370;4.832;2023-04-07T02:55:32;101513.66;;;8.51;100.00